Time;durP1;ratioP1;P1;durP2;ratioP2;P2;SDS_P1;SDS_P2;PMS_P1;PMS_P2;Temp;Humidity;BMP_temperature;BMP_pressure;BME280_temperature;BME280_humidity;BME280_pressure;Samples;Min_cycle;Max_cycle;Signal;HPM_P1;HPM_P2
2021/01/27 00:00:52;;;;;;;59.58;25.52;;;;;;;-0.96;84.76;98633.44;1861498;77;21122;-70
2021/01/27 00:03:20;;;;;;;60.10;22.75;;;;;;;-0.96;85.02;98628.75;1859494;77;21098;-70
2021/01/27 00:05:50;;;;;;;57.53;21.80;;;;;;;-0.98;85.01;98621.50;1860876;77;21149;-70
2021/01/27 00:08:19;;;;;;;53.20;22.13;;;;;;;-0.99;84.92;98623.20;1860874;77;21122;-70
2021/01/27 00:10:47;;;;;;;55.73;20.90;;;;;;;-1.02;84.79;98620.17;1862797;77;21130;-69
2021/01/27 00:13:18;;;;;;;51.18;20.35;;;;;;;-1.02;85.18;98625.70;1859802;77;21927;-70
2021/01/27 00:15:48;;;;;;;44.83;19.17;;;;;;;-1.02;85.07;98628.25;1828479;77;21097;-69
2021/01/27 00:18:20;;;;;;;51.90;19.62;;;;;;;-1.01;85.13;98623.17;1829036;77;21142;-69
2021/01/27 00:20:48;;;;;;;49.77;19.92;;;;;;;-0.99;85.07;98628.31;1824929;78;21147;-69
2021/01/27 00:23:16;;;;;;;51.58;20.77;;;;;;;-0.98;84.67;98629.16;1823257;78;21152;-70
2021/01/27 00:25:44;;;;;;;56.13;20.32;;;;;;;-1.03;85.84;98628.67;1825887;77;21123;-70
2021/01/27 00:28:12;;;;;;;53.52;21.30;;;;;;;-1.02;85.59;98631.65;1823799;78;21124;-69
2021/01/27 00:30:42;;;;;;;51.18;21.23;;;;;;;-1.01;85.85;98629.98;1826122;77;21673;-70
2021/01/27 00:33:14;;;;;;;52.23;21.55;;;;;;;-1.00;85.77;98634.23;1823731;77;21094;-69
2021/01/27 00:35:46;;;;;;;50.10;20.15;;;;;;;-0.96;85.66;98641.52;1826488;77;21988;-70
2021/01/27 00:38:25;;;;;;;47.80;20.05;;;;;;;-0.94;85.60;98638.14;1826266;77;21590;-69
2021/01/27 00:40:57;;;;;;;49.42;20.48;;;;;;;-0.91;85.47;98636.07;1827009;77;21125;-69
2021/01/27 00:43:26;;;;;;;49.80;20.10;;;;;;;-0.89;84.83;98636.95;1826450;78;21165;-69
2021/01/27 00:45:55;;;;;;;54.18;21.00;;;;;;;-0.88;85.06;98629.71;1826246;77;21156;-70
2021/01/27 00:48:23;;;;;;;56.18;20.80;;;;;;;-0.86;84.99;98626.33;1825624;78;21120;-69
2021/01/27 00:50:52;;;;;;;60.85;23.45;;;;;;;-0.87;84.99;98617.41;1824224;78;21135;-70
2021/01/27 00:53:22;;;;;;;53.13;20.82;;;;;;;-0.86;84.91;98611.02;1795676;78;21096;-69
2021/01/27 00:55:50;;;;;;;65.22;26.93;;;;;;;-0.89;84.69;98616.11;1827017;77;21133;-69
2021/01/27 00:58:19;;;;;;;59.25;23.15;;;;;;;-0.93;85.02;98614.78;1824835;77;21867;-70
2021/01/27 01:00:52;;;;;;;68.70;24.40;;;;;;;-0.97;85.25;98610.47;1824705;77;21141;-69
2021/01/27 01:03:24;;;;;;;59.53;23.55;;;;;;;-0.98;85.27;98612.14;1825141;78;21128;-70
2021/01/27 01:05:52;;;;;;;69.00;27.25;;;;;;;-0.94;85.42;98604.97;1822898;78;22245;-70
2021/01/27 01:08:20;;;;;;;68.57;26.68;;;;;;;-0.92;84.83;98605.84;1823720;76;21157;-69
2021/01/27 01:10:52;;;;;;;78.75;27.15;;;;;;;-0.94;84.47;98593.48;1824895;77;21140;-69
2021/01/27 01:13:24;;;;;;;68.97;25.92;;;;;;;-0.91;84.49;98592.26;1822586;78;21649;-69
2021/01/27 01:15:53;;;;;;;59.38;25.35;;;;;;;-0.89;84.92;98599.94;1824232;77;21167;-69
2021/01/27 01:18:22;;;;;;;65.65;25.52;;;;;;;-0.87;84.74;98585.08;1846966;77;21177;-69
2021/01/27 01:20:50;;;;;;;54.27;21.40;;;;;;;-0.88;85.91;98582.07;1831686;78;21290;-70
2021/01/27 01:23:21;;;;;;;58.87;23.00;;;;;;;-0.85;84.59;98575.75;1830651;78;21710;-69
2021/01/27 01:25:49;;;;;;;68.20;25.00;;;;;;;-0.84;84.92;98572.77;1831689;77;21291;-70
2021/01/27 01:28:18;;;;;;;60.40;22.77;;;;;;;-0.79;85.43;98566.46;1831392;77;21140;-70
2021/01/27 01:30:48;;;;;;;63.30;25.32;;;;;;;-0.76;85.15;98565.20;1831345;78;22052;-70
2021/01/27 01:33:29;;;;;;;65.20;23.70;;;;;;;-0.74;85.15;98564.38;1830756;77;21669;-70
2021/01/27 01:35:58;;;;;;;57.45;23.92;;;;;;;-0.71;85.11;98564.42;1831175;77;21624;-69
2021/01/27 01:38:27;;;;;;;67.67;25.62;;;;;;;-0.70;84.86;98563.56;1830913;78;21152;-69
2021/01/27 01:41:01;;;;;;;60.35;22.60;;;;;;;-0.68;84.92;98558.48;1830278;77;21142;-69
2021/01/27 01:43:39;;;;;;;52.93;22.02;;;;;;;-0.68;85.11;98558.48;1830698;77;21128;-69
2021/01/27 01:46:18;;;;;;;54.18;20.77;;;;;;;-0.67;84.44;98558.51;1831421;78;21573;-69
2021/01/27 01:49:07;;;;;;;46.65;18.30;;;;;;;-0.70;84.68;98566.55;1830837;78;21551;-70
2021/01/27 01:51:46;;;;;;;51.65;19.90;;;;;;;-0.68;84.35;98575.08;1831723;77;21122;-69
2021/01/27 01:54:37;;;;;;;54.83;22.22;;;;;;;-0.69;84.47;98578.06;1801997;78;21129;-69
2021/01/27 01:57:19;;;;;;;55.60;20.37;;;;;;;-0.67;84.40;98567.87;1831499;77;21156;-70
2021/01/27 02:00:00;;;;;;;58.83;21.73;;;;;;;-0.67;84.15;98573.83;1830932;77;21120;-70
2021/01/27 02:02:28;;;;;;;49.88;21.15;;;;;;;-0.68;84.06;98566.99;1830121;78;21126;-69
2021/01/27 02:05:06;;;;;;;58.33;21.70;;;;;;;-0.71;84.08;98564.85;1830995;78;21155;-69
2021/01/27 02:07:35;;;;;;;54.83;22.22;;;;;;;-0.72;84.40;98572.05;1831358;78;21586;-70
2021/01/27 02:10:06;;;;;;;54.05;23.05;;;;;;;-0.74;84.94;98569.91;1830395;78;21120;-70
2021/01/27 02:13:13;;;;;;;54.20;21.97;;;;;;;-0.74;85.24;98573.30;1831921;78;21523;-70
2021/01/27 02:15:52;;;;;;;61.55;20.80;;;;;;;-0.72;84.24;98574.61;1831507;78;21119;-71
2021/01/27 02:18:47;;;;;;;55.88;21.57;;;;;;;-0.74;84.89;98569.91;1831024;77;21091;-69
2021/01/27 02:21:32;;;;;;;64.67;22.42;;;;;;;-0.73;84.38;98573.76;1831676;77;21609;-71
2021/01/27 02:24:31;;;;;;;63.50;22.07;;;;;;;-0.74;84.31;98580.97;1796032;78;21139;-69
2021/01/27 02:27:09;;;;;;;64.82;24.98;;;;;;;-0.72;84.59;98570.78;1775304;80;21166;-69
2021/01/27 02:30:18;;;;;;;59.70;23.30;;;;;;;-0.76;84.63;98576.27;1774627;79;21172;-69
2021/01/27 02:33:41;;;;;;;55.55;20.90;;;;;;;-0.72;84.34;98574.18;1668137;84;21144;-69
2021/01/27 02:36:36;;;;;;;62.60;23.73;;;;;;;-0.71;84.86;98568.25;1666052;84;21573;-70
2021/01/27 02:39:21;;;;;;;60.08;23.00;;;;;;;-0.71;84.55;98558.04;1767749;79;21576;-69
2021/01/27 02:42:06;;;;;;;61.33;21.57;;;;;;;-0.75;84.55;98558.00;1773511;79;21177;-69
2021/01/27 02:44:54;;;;;;;54.67;21.33;;;;;;;-0.77;84.36;98563.08;1745339;79;21156;-70
2021/01/27 02:47:46;;;;;;;58.17;21.97;;;;;;;-0.77;84.56;98566.91;1744966;81;21132;-69
2021/01/27 02:50:41;;;;;;;50.58;20.48;;;;;;;-0.76;84.58;98560.95;1772897;79;21154;-70
2021/01/27 02:53:22;;;;;;;52.85;18.52;;;;;;;-0.73;84.80;98560.14;1773075;79;21154;-69
2021/01/27 02:56:04;;;;;;;55.65;21.42;;;;;;;-0.71;84.46;98558.47;1774295;79;21175;-69
2021/01/27 02:58:40;;;;;;;54.27;21.40;;;;;;;-0.70;84.39;98558.46;1748352;79;21166;-69
2021/01/27 03:01:31;;;;;;;64.40;21.17;;;;;;;-0.69;84.61;98553.81;1774930;79;21104;-69
2021/01/27 03:04:10;;;;;;;55.52;21.62;;;;;;;-0.69;84.20;98551.25;1691987;84;21227;-70
2021/01/27 03:06:41;;;;;;;63.92;23.07;;;;;;;-0.71;84.03;98555.91;1692130;84;21613;-70
2021/01/27 03:09:23;;;;;;;55.80;22.75;;;;;;;-0.74;84.57;98556.72;1731386;79;21190;-69
2021/01/27 03:11:51;;;;;;;54.35;20.52;;;;;;;-0.74;84.74;98557.14;1774008;79;21158;-69
2021/01/27 03:14:20;;;;;;;53.63;20.97;;;;;;;-0.76;84.82;98566.05;1775305;79;21135;-70
2021/01/27 03:16:57;;;;;;;58.80;19.92;;;;;;;-0.77;84.53;98566.91;1774633;79;21175;-71
2021/01/27 03:19:36;;;;;;;53.60;21.30;;;;;;;-0.76;84.54;98566.48;1780357;79;21618;-69
2021/01/27 03:22:11;;;;;;;44.90;18.17;;;;;;;-0.77;84.84;98564.36;1785282;79;21631;-70
2021/01/27 03:24:53;;;;;;;46.33;19.00;;;;;;;-0.75;84.91;98574.59;1785390;79;21171;-69
2021/01/27 03:27:29;;;;;;;43.08;17.95;;;;;;;-0.75;84.89;98575.44;1781324;79;21169;-69
2021/01/27 03:29:59;;;;;;;41.05;17.30;;;;;;;-0.75;84.44;98573.31;1781892;79;21640;-70
2021/01/27 03:33:08;;;;;;;37.63;15.78;;;;;;;-0.76;84.16;98568.61;1784901;79;21153;-70
2021/01/27 03:35:44;;;;;;;47.08;17.67;;;;;;;-0.76;84.43;98566.48;1784731;79;21153;-70
2021/01/27 03:38:29;;;;;;;42.90;17.92;;;;;;;-0.77;84.62;98564.78;1787309;79;21626;-71
2021/01/27 03:41:02;;;;;;;43.63;18.82;;;;;;;-0.78;84.83;98561.77;1784626;79;21576;-70
2021/01/27 03:43:44;;;;;;;51.90;20.30;;;;;;;-0.80;84.65;98556.65;1781458;79;21180;-70
2021/01/27 03:46:26;;;;;;;42.55;18.17;;;;;;;-0.82;84.52;98556.66;1766024;79;21152;-70
2021/01/27 03:49:06;;;;;;;45.85;19.52;;;;;;;-0.81;84.79;98558.35;1784800;79;21160;-70
2021/01/27 03:51:38;;;;;;;40.55;17.48;;;;;;;-0.82;84.62;98554.10;1786075;79;21128;-69
2021/01/27 03:54:11;;;;;;;39.35;16.45;;;;;;;-0.83;84.71;98549.82;1781107;79;22172;-70
2021/01/27 03:56:47;;;;;;;47.27;18.67;;;;;;;-0.85;84.72;98555.33;1784670;79;21526;-70
2021/01/27 03:59:15;;;;;;;40.43;15.13;;;;;;;-0.87;84.68;98552.33;1784730;79;21160;-70
2021/01/27 04:01:52;;;;;;;38.63;16.60;;;;;;;-0.88;84.88;98551.45;1783469;79;21129;-71
2021/01/27 04:04:21;;;;;;;51.95;20.27;;;;;;;-0.89;84.60;98548.91;1753548;79;21144;-70
2021/01/27 04:06:49;;;;;;;63.17;23.85;;;;;;;-0.89;84.81;98555.28;1785779;79;21164;-69
2021/01/27 04:09:17;;;;;;;59.48;23.50;;;;;;;-0.91;84.68;98558.23;1783696;79;21140;-70
2021/01/27 04:11:45;;;;;;;61.02;22.52;;;;;;;-0.94;84.76;98556.91;1785909;79;21586;-70
2021/01/27 04:14:12;;;;;;;54.20;19.45;;;;;;;-0.96;84.76;98563.27;1784956;79;21148;-70
2021/01/27 04:16:42;;;;;;;39.63;15.88;;;;;;;-0.95;85.06;98558.61;1784358;79;21634;-70
2021/01/27 04:19:10;;;;;;;36.33;14.28;;;;;;;-0.96;84.91;98558.59;1784255;79;21201;-69
2021/01/27 04:21:38;;;;;;;33.55;15.03;;;;;;;-0.94;85.11;98564.56;1797996;79;21161;-69
2021/01/27 04:24:06;;;;;;;35.23;14.15;;;;;;;-0.95;84.97;98560.31;1798450;79;21140;-69
2021/01/27 04:26:35;;;;;;;33.88;13.65;;;;;;;-0.96;85.23;98567.09;1796221;79;21148;-70
2021/01/27 04:29:04;;;;;;;40.48;17.92;;;;;;;-0.94;85.05;98564.56;1797775;79;21166;-69
2021/01/27 04:31:32;;;;;;;38.73;15.38;;;;;;;-0.93;85.40;98564.59;1797623;80;21153;-69
2021/01/27 04:34:00;;;;;;;43.83;17.57;;;;;;;-0.91;85.59;98565.89;1797184;79;21145;-69
2021/01/27 04:36:29;;;;;;;37.67;14.98;;;;;;;-0.88;85.41;98564.63;1796585;80;21137;-70
2021/01/27 04:38:57;;;;;;;31.90;14.58;;;;;;;-0.86;85.30;98556.58;1797430;80;21567;-70
2021/01/27 04:41:25;;;;;;;34.45;13.72;;;;;;;-0.85;85.38;98562.13;1797707;80;21168;-70
2021/01/27 04:43:53;;;;;;;36.58;14.93;;;;;;;-0.83;85.14;98554.92;1797378;80;21149;-70
2021/01/27 04:46:35;;;;;;;;;;;;;;;-0.79;84.82;98558.80;1800363;80;21129;-70
2021/01/27 04:49:25;;;;;;;31.15;12.88;;;;;;;-0.81;85.06;98549.84;1744842;79;20158;-70
2021/01/27 04:52:18;;;;;;;37.40;15.38;;;;;;;-0.79;84.57;98553.27;1797109;80;21153;-69
2021/01/27 04:55:13;;;;;;;54.98;17.98;;;;;;;-0.78;84.41;98546.46;1798153;80;21133;-69
2021/01/27 04:58:20;;;;;;;40.95;16.37;;;;;;;-0.79;84.59;98550.72;1799029;80;21613;-69
2021/01/27 05:01:10;;;;;;;48.92;19.50;;;;;;;-0.79;84.12;98560.93;1797337;79;21169;-69
2021/01/27 05:04:20;;;;;;;48.58;17.35;;;;;;;-0.79;84.63;98569.02;1798100;79;21173;-69
2021/01/27 05:06:53;;;;;;;49.98;17.07;;;;;;;-0.79;84.31;98563.91;1798853;80;21719;-69
2021/01/27 05:09:57;;;;;;;43.68;17.57;;;;;;;-0.83;84.39;98567.69;1793164;80;21956;-69
2021/01/27 05:12:32;;;;;;;41.18;14.25;;;;;;;-0.81;84.04;98571.11;1797459;80;21656;-70
2021/01/27 05:15:10;;;;;;;29.77;13.03;;;;;;;-0.83;84.19;98569.39;1871855;74;22916;-70
2021/01/27 05:17:42;;;;;;;37.95;13.53;;;;;;;-0.86;84.07;98575.72;1845003;75;21625;-70
2021/01/27 05:20:12;;;;;;;32.80;12.82;;;;;;;-0.82;84.05;98580.02;1845957;75;21949;-70
2021/01/27 05:22:40;;;;;;;38.45;14.93;;;;;;;-0.83;84.08;98575.34;1845582;75;21146;-70
2021/01/27 05:25:19;;;;;;;28.57;11.00;;;;;;;-0.86;84.00;98578.27;1844611;75;21099;-70
2021/01/27 05:27:47;;;;;;;26.23;9.35;;;;;;;-0.85;83.78;98573.63;1780659;76;21115;-70
2021/01/27 05:30:20;;;;;;;24.37;10.23;;;;;;;-0.84;83.82;98580.42;1843047;75;21114;-71
2021/01/27 05:32:57;;;;;;;19.70;7.20;;;;;;;-0.84;83.73;98573.61;1845329;75;21138;-70
2021/01/27 05:35:36;;;;;;;25.23;10.48;;;;;;;-0.85;83.63;98568.52;1846166;75;21994;-70
2021/01/27 05:38:30;;;;;;;18.98;8.53;;;;;;;-0.88;83.59;98568.03;1844963;75;21088;-71
2021/01/27 05:41:15;;;;;;;19.75;8.30;;;;;;;-0.93;84.03;98562.47;1846418;75;21547;-70
2021/01/27 05:43:43;;;;;;;19.10;8.60;;;;;;;-0.88;83.73;98574.41;1839929;75;21657;-69
2021/01/27 05:46:16;;;;;;;20.12;7.95;;;;;;;-0.93;83.61;98570.13;1846428;75;21146;-69
2021/01/27 05:48:51;;;;;;;23.10;8.65;;;;;;;-0.93;83.23;98578.63;1845631;75;21132;-70
2021/01/27 05:51:29;;;;;;;19.60;8.88;;;;;;;-0.97;82.78;98581.98;1847177;75;21138;-69
2021/01/27 05:54:01;;;;;;;17.77;8.40;;;;;;;-0.93;82.72;98580.33;1843686;75;21591;-69
2021/01/27 05:56:29;;;;;;;20.62;8.85;;;;;;;-0.91;82.95;98574.83;1841861;76;21141;-70
2021/01/27 05:59:02;;;;;;;31.52;12.28;;;;;;;-0.87;82.43;98579.12;1845314;75;21604;-69
2021/01/27 06:01:37;;;;;;;26.10;9.43;;;;;;;-0.94;82.52;98571.79;1845036;75;21126;-69
2021/01/27 06:04:25;;;;;;;22.40;9.73;;;;;;;-0.90;82.52;98576.09;1845387;75;21575;-70
2021/01/27 06:07:07;;;;;;;23.77;8.73;;;;;;;-0.88;82.55;98582.50;1845426;76;21169;-69
2021/01/27 06:09:42;;;;;;;24.67;9.68;;;;;;;-0.88;82.38;98583.34;1842199;75;21596;-69
2021/01/27 06:12:24;;;;;;;20.02;8.60;;;;;;;-0.94;82.32;98592.20;1845796;75;21122;-70
2021/01/27 06:15:06;;;;;;;21.95;8.50;;;;;;;-0.93;82.06;98591.38;1835420;76;21631;-69
2021/01/27 06:17:48;;;;;;;22.22;9.20;;;;;;;-0.92;82.34;98591.80;1834178;76;21541;-70
2021/01/27 06:20:32;;;;;;;22.70;8.28;;;;;;;-0.91;82.29;98591.41;1832698;76;21583;-69
2021/01/27 06:23:27;;;;;;;18.92;9.23;;;;;;;-0.89;82.30;98594.84;1835501;76;21567;-69
2021/01/27 06:26:30;;;;;;;20.60;8.68;;;;;;;-0.91;82.25;98599.91;1834569;76;21126;-70
2021/01/27 06:29:15;;;;;;;26.55;8.83;;;;;;;-0.93;82.04;98604.14;1833176;75;21732;-70
2021/01/27 06:32:28;;;;;;;19.25;8.35;;;;;;;-0.87;82.00;98608.47;1877788;76;23366;-69
2021/01/27 06:35:17;;;;;;;20.27;8.93;;;;;;;-0.90;82.06;98610.55;1868077;76;21143;-69
2021/01/27 06:37:59;;;;;;;22.40;8.48;;;;;;;-0.87;82.16;98613.15;1867645;76;21155;-69
2021/01/27 06:41:03;;;;;;;19.17;8.88;;;;;;;-0.78;82.10;98612.40;1782968;78;23996;-69
2021/01/27 06:43:59;;;;;;;29.10;10.68;;;;;;;-0.83;82.05;98620.44;1812102;79;21134;-69
2021/01/27 06:47:14;;;;;;;23.90;9.53;;;;;;;-0.85;82.04;98624.66;1797717;78;21134;-69
2021/01/27 06:50:10;;;;;;;30.92;10.68;;;;;;;-0.90;82.12;98630.96;1813067;79;21176;-69
2021/01/27 06:53:11;;;;;;;26.02;10.23;;;;;;;-0.86;82.14;98619.95;1813231;78;22258;-69
2021/01/27 06:55:50;;;;;;;28.67;11.45;;;;;;;-0.83;82.37;98622.98;1813606;78;21639;-69
2021/01/27 06:58:49;;;;;;;22.58;9.70;;;;;;;-0.81;82.12;98623.44;1811801;78;21177;-69
2021/01/27 07:01:28;;;;;;;25.35;10.98;;;;;;;-0.74;82.10;98624.78;1812870;78;21153;-69
2021/01/27 07:04:08;;;;;;;23.18;8.95;;;;;;;-0.72;81.74;98629.06;1811106;78;21149;-69
2021/01/27 07:07:11;;;;;;;26.73;10.68;;;;;;;-0.68;81.98;98625.70;1791172;78;21140;-69
2021/01/27 07:10:17;;;;;;;33.45;12.63;;;;;;;-0.64;81.58;98616.00;1811296;78;21128;-71
2021/01/27 07:12:50;;;;;;;35.03;15.28;;;;;;;-0.55;81.81;98616.52;1808595;78;21589;-70
2021/01/27 07:15:39;;;;;;;40.08;13.95;;;;;;;-0.51;81.05;98610.61;1812161;78;21972;-70
2021/01/27 07:18:18;;;;;;;36.08;14.47;;;;;;;-0.59;79.90;98609.66;1813246;78;22452;-70
2021/01/27 07:21:00;;;;;;;35.83;13.65;;;;;;;-0.51;81.06;98608.05;1780203;78;21258;-69
2021/01/27 07:23:36;;;;;;;44.40;16.48;;;;;;;-0.47;80.68;98602.56;1743280;81;21605;-71
2021/01/27 07:26:18;;;;;;;47.13;20.12;;;;;;;-0.42;80.62;98599.63;1813598;78;21592;-70
2021/01/27 07:29:15;;;;;;;50.30;21.23;;;;;;;-0.40;80.88;98596.66;1814083;78;21144;-72
2021/01/27 07:31:58;;;;;;;53.05;20.32;;;;;;;-0.43;80.96;98592.81;1810735;78;21134;-71
2021/01/27 07:34:47;;;;;;;60.12;22.90;;;;;;;-0.37;80.89;98605.66;1811486;78;21560;-71
2021/01/27 07:37:34;;;;;;;47.33;18.70;;;;;;;-0.36;81.28;98608.63;1811005;78;21167;-71
2021/01/27 07:40:16;;;;;;;53.60;21.48;;;;;;;-0.31;81.19;98615.08;1814212;78;21589;-70
2021/01/27 07:43:12;;;;;;;56.02;20.82;;;;;;;-0.28;81.05;98618.53;1811262;78;21137;-72
2021/01/27 07:45:45;;;;;;;39.60;16.12;;;;;;;-0.22;81.19;98618.99;1812809;78;21110;-71
2021/01/27 07:48:58;;;;;;;35.70;13.55;;;;;;;-0.21;79.93;98620.29;1813331;78;21141;-71
2021/01/27 07:51:31;;;;;;;45.35;17.70;;;;;;;-0.16;79.30;98618.20;1812156;78;21596;-70
2021/01/27 07:54:12;;;;;;;36.13;14.73;;;;;;;-0.12;78.92;98625.94;1809501;78;21141;-70
2021/01/27 07:56:54;;;;;;;24.63;10.65;;;;;;;-0.14;78.98;98626.73;1783117;78;21137;-69
2021/01/27 07:59:32;;;;;;;22.42;9.90;;;;;;;-0.04;79.99;98635.81;1742028;81;21114;-71
2021/01/27 08:02:11;;;;;;;21.60;8.75;;;;;;;-0.05;77.43;98627.69;1810190;78;21125;-70
2021/01/27 08:04:49;;;;;;;22.80;9.78;;;;;;;0.04;79.62;98635.89;1811384;79;21164;-71
2021/01/27 08:07:30;;;;;;;20.20;8.63;;;;;;;-0.01;76.44;98624.75;1812722;78;21116;-70
2021/01/27 08:10:18;;;;;;;21.48;10.00;;;;;;;0.09;78.74;98626.55;1813929;78;21145;-70
2021/01/27 08:12:56;;;;;;;17.82;7.90;;;;;;;0.01;74.89;98629.45;1805840;78;21909;-70
2021/01/27 08:15:32;;;;;;;24.90;9.53;;;;;;;0.13;76.22;98624.88;1812033;78;21153;-70
2021/01/27 08:18:15;;;;;;;29.50;8.45;;;;;;;0.17;77.09;98626.62;1812531;78;21526;-70
2021/01/27 08:20:46;;;;;;;25.80;10.40;;;;;;;0.25;77.72;98630.53;1813124;78;21137;-72
2021/01/27 08:23:26;;;;;;;17.80;7.85;;;;;;;0.34;77.99;98625.50;1811627;78;21682;-71
2021/01/27 08:26:01;;;;;;;20.32;8.83;;;;;;;0.33;76.96;98621.22;1810826;78;21128;-71
2021/01/27 08:28:43;;;;;;;17.57;7.87;;;;;;;0.28;75.30;98609.69;1782009;78;21142;-71
2021/01/27 08:31:18;;;;;;;20.97;8.20;;;;;;;0.34;75.06;98606.33;1810533;78;21134;-70
2021/01/27 08:33:55;;;;;;;24.25;7.50;;;;;;;0.35;76.14;98596.52;1809972;78;21147;-72
2021/01/27 08:36:32;;;;;;;23.12;8.63;;;;;;;0.31;76.07;98602.02;1810876;78;21129;-70
2021/01/27 08:39:10;;;;;;;18.10;7.58;;;;;;;0.35;76.18;98594.80;1810297;78;21152;-70
2021/01/27 08:41:50;;;;;;;20.32;9.88;;;;;;;0.38;76.57;98595.27;1829989;78;21116;-70
2021/01/27 08:44:27;;;;;;;24.15;8.65;;;;;;;0.45;75.88;98602.56;1827914;78;21120;-70
2021/01/27 08:47:18;;;;;;;21.80;9.15;;;;;;;0.42;75.59;98603.41;1829540;78;21124;-71
2021/01/27 08:49:59;;;;;;;21.87;9.00;;;;;;;0.43;74.75;98603.82;1806887;79;21146;-70
2021/01/27 08:52:34;;;;;;;21.23;8.98;;;;;;;0.43;75.03;98598.70;1806857;79;21954;-71
2021/01/27 08:55:06;;;;;;;18.98;8.28;;;;;;;0.51;75.70;98601.32;1809412;79;21137;-70
2021/01/27 09:00:38;;;;;;;24.57;9.60;;;;;;;0.54;73.93;98583.02;1876011;76;22927;-71
2021/01/27 09:03:05;;;;;;;;;;;;;;;0.59;75.69;98575.37;1781275;78;21237;-71
2021/01/27 09:05:40;;;;;;;21.02;9.28;;;;;;;0.61;75.30;98575.39;1778608;80;20465;-71
2021/01/27 09:08:19;;;;;;;18.92;8.03;;;;;;;0.52;74.61;98582.16;1819235;78;21152;-69
2021/01/27 09:10:55;;;;;;;22.85;9.25;;;;;;;0.56;74.49;98577.49;1772500;80;21191;-70
2021/01/27 09:13:42;;;;;;;19.00;9.08;;;;;;;0.58;74.03;98577.08;1818048;78;21489;-71
2021/01/27 09:16:27;;;;;;;19.23;9.10;;;;;;;0.64;74.85;98579.22;1779487;80;21152;-70
2021/01/27 09:19:00;;;;;;;29.70;9.40;;;;;;;0.71;75.18;98580.98;1780689;78;21706;-70
2021/01/27 09:21:31;;;;;;;50.40;21.55;;;;;;;0.78;74.61;98577.63;1779678;78;21529;-70
2021/01/27 09:24:09;;;;;;;26.65;13.60;;;;;;;0.86;73.40;98583.64;1776283;80;21130;-72
2021/01/27 09:26:46;;;;;;;21.57;8.05;;;;;;;0.98;74.63;98581.15;1777831;79;21125;-71
2021/01/27 09:29:25;;;;;;;21.27;8.20;;;;;;;1.04;73.98;98582.04;1816148;78;21583;-70
2021/01/27 09:31:54;;;;;;;24.65;7.67;;;;;;;1.09;73.85;98582.89;1817521;78;21136;-71
2021/01/27 09:34:29;;;;;;;23.25;9.13;;;;;;;1.08;72.30;98586.33;1815940;78;21136;-70
2021/01/27 09:37:21;;;;;;;19.60;7.92;;;;;;;1.03;71.08;98576.47;1819889;78;21165;-71
2021/01/27 09:39:55;;;;;;;21.73;8.65;;;;;;;1.02;71.82;98575.63;1780155;80;21175;-71
2021/01/27 09:42:29;;;;;;;21.45;7.12;;;;;;;1.13;72.51;98579.50;1812352;78;21874;-71
2021/01/27 09:45:01;;;;;;;20.43;7.30;;;;;;;1.14;70.75;98582.08;1818747;78;21098;-71
2021/01/27 09:47:33;;;;;;;15.68;6.75;;;;;;;1.18;70.32;98584.23;1781150;78;21287;-70
2021/01/27 09:50:03;;;;;;;20.88;8.40;;;;;;;1.18;69.20;98586.36;1817965;78;21937;-71
2021/01/27 09:52:33;;;;;;;16.50;7.35;;;;;;;1.29;71.79;98580.42;1782167;78;22003;-71
2021/01/27 09:55:13;;;;;;;16.65;6.10;;;;;;;1.13;67.94;98570.54;1818597;78;21132;-71
2021/01/27 09:57:43;;;;;;;21.85;7.37;;;;;;;1.29;67.88;98566.34;1779040;78;21115;-71
2021/01/27 10:00:19;;;;;;;18.90;8.48;;;;;;;1.43;70.66;98571.50;1819830;78;21156;-71
2021/01/27 10:02:47;;;;;;;21.82;7.90;;;;;;;1.51;70.49;98565.58;1810113;78;21649;-70
2021/01/27 10:05:37;;;;;;;19.67;8.08;;;;;;;1.46;69.47;98564.69;1780681;80;21120;-71
2021/01/27 10:08:36;;;;;;;18.75;8.20;;;;;;;1.44;69.85;98552.73;1821001;78;21992;-71
2021/01/27 10:11:11;;;;;;;18.05;7.62;;;;;;;1.41;67.74;98560.40;1776652;80;21667;-70
2021/01/27 10:13:42;;;;;;;20.30;7.37;;;;;;;1.48;69.83;98555.73;1820211;78;21151;-71
2021/01/27 10:16:13;;;;;;;21.25;7.83;;;;;;;1.48;69.41;98554.02;1819297;78;21598;-71
2021/01/27 10:18:44;;;;;;;19.62;7.90;;;;;;;1.52;70.20;98548.48;1772113;80;21160;-71
2021/01/27 10:21:16;;;;;;;14.25;6.62;;;;;;;1.62;70.13;98548.93;1782467;80;21125;-70
2021/01/27 10:23:48;;;;;;;14.98;6.45;;;;;;;1.65;69.52;98545.11;1816721;78;21161;-71
2021/01/27 10:26:41;;;;;;;20.27;6.33;;;;;;;1.66;66.31;98547.23;1747895;80;21141;-70
2021/01/27 10:29:22;;;;;;;16.95;5.85;;;;;;;1.74;67.23;98552.80;1774043;80;21570;-70
2021/01/27 10:31:56;;;;;;;18.00;7.05;;;;;;;1.84;68.16;98548.97;1818033;78;21120;-71
2021/01/27 10:34:37;;;;;;;17.02;6.35;;;;;;;1.94;69.52;98550.25;1779461;78;21137;-71
2021/01/27 10:37:25;;;;;;;20.00;6.75;;;;;;;2.06;68.46;98551.13;1761676;80;21145;-71
2021/01/27 10:40:16;;;;;;;18.87;7.05;;;;;;;2.05;65.54;98559.25;1793850;78;21128;-71
2021/01/27 10:42:54;;;;;;;20.35;6.72;;;;;;;2.13;66.05;98566.52;1775687;80;21153;-71
2021/01/27 10:45:36;;;;;;;19.17;8.78;;;;;;;2.22;65.59;98564.80;1811186;78;21149;-70
2021/01/27 10:48:22;;;;;;;17.57;7.72;;;;;;;2.21;65.79;98563.08;1788481;79;21141;-70
2021/01/27 10:50:56;;;;;;;24.63;8.73;;;;;;;2.22;65.94;98560.52;1816674;78;21125;-71
2021/01/27 10:53:26;;;;;;;18.52;7.08;;;;;;;2.26;67.59;98553.25;1807140;78;21597;-71
2021/01/27 10:55:55;;;;;;;18.92;7.60;;;;;;;2.18;67.36;98554.96;1818966;78;21142;-72
2021/01/27 10:58:24;;;;;;;17.67;8.00;;;;;;;2.14;64.33;98554.10;1778211;80;21960;-71
2021/01/27 11:00:52;;;;;;;15.10;6.85;;;;;;;2.16;65.53;98544.70;1783119;78;21564;-71
2021/01/27 11:03:20;;;;;;;25.77;8.78;;;;;;;2.19;64.79;98545.15;1772793;80;21152;-71
2021/01/27 11:05:49;;;;;;;17.57;8.98;;;;;;;2.35;67.31;98537.02;1782711;79;21576;-70
2021/01/27 11:08:29;;;;;;;23.77;8.23;;;;;;;2.37;66.09;98540.43;1817493;78;21106;-70
2021/01/27 11:10:59;;;;;;;25.68;8.18;;;;;;;2.35;64.85;98542.14;1777093;78;21155;-71
2021/01/27 11:13:30;;;;;;;16.52;7.30;;;;;;;2.40;65.40;98539.13;1819773;78;21129;-71
2021/01/27 11:15:58;;;;;;;21.37;7.40;;;;;;;2.47;64.12;98532.30;1780338;78;21573;-71
2021/01/27 11:18:26;;;;;;;17.50;6.60;;;;;;;2.58;64.16;98541.66;1817509;78;21128;-71
2021/01/27 11:20:54;;;;;;;14.33;6.62;;;;;;;2.63;62.25;98531.84;1779973;78;21135;-71
2021/01/27 11:23:22;;;;;;;17.57;7.55;;;;;;;2.64;63.18;98530.53;1808528;78;21140;-73
2021/01/27 11:25:52;;;;;;;20.65;8.25;;;;;;;2.70;62.17;98528.38;1817121;78;21497;-73
2021/01/27 11:28:21;;;;;;;14.55;7.75;;;;;;;2.84;64.35;98526.62;1779177;78;21201;-71
2021/01/27 11:30:49;;;;;;;19.45;7.08;;;;;;;2.91;63.45;98531.33;1777776;78;21137;-71
2021/01/27 11:33:19;;;;;;;17.57;7.60;;;;;;;3.09;62.96;98536.83;1776404;80;21159;-71
2021/01/27 11:35:47;;;;;;;15.83;7.30;;;;;;;3.14;62.34;98537.64;1817839;78;21164;-71
2021/01/27 11:38:17;;;;;;;21.40;7.37;;;;;;;3.15;59.26;98537.64;1810855;78;21186;-71
2021/01/27 11:40:45;;;;;;;19.52;7.72;;;;;;;3.26;60.79;98537.58;1807840;78;21672;-71
2021/01/27 11:43:12;;;;;;;19.02;6.67;;;;;;;3.33;61.73;98523.86;1821503;78;21154;-71
2021/01/27 11:45:40;;;;;;;22.02;7.42;;;;;;;3.36;59.25;98530.69;1819312;78;21128;-72
2021/01/27 11:48:10;;;;;;;18.35;7.08;;;;;;;3.44;59.63;98535.35;1814933;78;21089;-71
2021/01/27 11:50:39;;;;;;;19.90;6.65;;;;;;;3.45;58.98;98543.50;1820461;78;21128;-71
2021/01/27 11:53:06;;;;;;;14.90;7.00;;;;;;;3.55;60.24;98537.87;1820001;78;21584;-70
2021/01/27 11:55:34;;;;;;;17.77;7.53;;;;;;;3.56;57.96;98534.02;1780552;78;21139;-71
2021/01/27 11:58:02;;;;;;;22.10;7.20;;;;;;;3.66;57.91;98530.97;1820872;78;21125;-71
2021/01/27 12:00:30;;;;;;;15.40;7.67;;;;;;;3.87;58.35;98531.68;1785650;79;21584;-72
2021/01/27 12:02:58;;;;;;;23.02;7.70;;;;;;;3.92;59.83;98536.34;1811511;78;21143;-71
2021/01/27 12:05:26;;;;;;;18.02;7.70;;;;;;;3.99;59.45;98539.30;1788257;80;21137;-70
2021/01/27 12:07:57;;;;;;;16.85;8.15;;;;;;;3.98;56.59;98546.61;1826235;78;21129;-70
2021/01/27 12:10:25;;;;;;;17.40;7.33;;;;;;;3.79;55.73;98542.86;1786864;79;21587;-70
2021/01/27 12:12:52;;;;;;;16.50;7.70;;;;;;;3.97;59.10;98541.88;1785975;79;21148;-71
2021/01/27 12:15:20;;;;;;;22.00;9.00;;;;;;;4.03;57.79;98541.42;1787383;78;22035;-71